Pagrindinis puslapis
METAR-TAF:

METAR-TAF

Oro uostai :

Ipatinga, Minas Žeraisas, Brazilija

platuma: 19-28-14S, ilguma: 042-29-17W, Aukštis: 239 m

Dabartinis oras

Ataskaita buvo paskelbta 15 valandos ir 28 minutes, ne 13:00 UTC
Vėjas 6 kt iš Šiaurės/Šiaurės Rytų
Temperatūra 26°C
Drėgmė 79%
Slėgis 1019 hPa
Matomumas 10 km arba daugiau
Išsisklaidę debesys ne aukštis 1500 ft
Su prošvaistėmis ne aukštis 2000 ft
Apsiniaukę ne aukštis 3000 ft

METAR: SBIP 061300Z 03006KT 9999 SCT015 BKN020 OVC030 26/22 Q1019

Laikas: 01:28 (04:28 UTC)


TAF: trūkstamas

Orai ataskaitas ir orų prognozės (METAR, TAF).

turimą stotys yra geltonos ir raudonos taškus žemėlapyje.

Perkelti pele per norėdami pamatyti stoties vardą.

Tada spustelėkite, norėdami matyti oro stebėjimo ir prognozės.

Norėdami pakeisti žemėlapį: spustelėkite ant žalios mygtukų su juodo kryžiaus žemyn,; žalią mygtuką su brūkšneliu, jei norite nutolinti; arba žalių rodyklių gretimoms žemėlapius.


METAR-TAF: